Time;durP1;ratioP1;P1;durP2;ratioP2;P2;SDS_P1;SDS_P2;PMS_P1;PMS_P2;Temp;Humidity;BMP_temperature;BMP_pressure;BME280_temperature;BME280_humidity;BME280_pressure;Samples;Min_cycle;Max_cycle;Signal;HPM_P1;HPM_P2
2022/04/16 00:01:42;;;;;;;17.30;13.25;;;;;;;;;;4975278;28;20213;-61
2022/04/16 00:04:09;;;;;;;17.33;12.93;;;;;;;;;;4965691;28;20280;-61
2022/04/16 00:06:34;;;;;;;16.45;12.77;;;;;;;;;;4972601;28;20233;-61
2022/04/16 00:09:00;;;;;;;19.25;12.75;;;;;;;;;;4983437;28;20217;-61
2022/04/16 00:11:25;;;;;;;17.45;12.82;;;;;;;;;;4977098;28;20220;-61
2022/04/16 00:13:50;;;;;;;17.95;13.43;;;;;;;;;;4979166;28;20332;-61
2022/04/16 00:16:17;;;;;;;18.45;13.95;;;;;;;;;;4976152;28;20221;-61
2022/04/16 00:18:43;;;;;;;16.50;12.85;;;;;;;;;;4977790;28;20213;-61
2022/04/16 00:21:08;;;;;;;19.58;13.05;;;;;;;;;;4982803;28;20349;-61
2022/04/16 00:23:34;;;;;;;15.77;12.43;;;;;;;;;;4984889;28;20541;-61
2022/04/16 00:26:00;;;;;;;19.88;13.90;;;;;;;;;;4985839;28;20260;-61
2022/04/16 00:28:27;;;;;;;17.63;13.80;;;;;;;;;;4984903;28;20244;-61
2022/04/16 00:30:52;;;;;;;21.02;14.65;;;;;;;;;;4983527;28;20210;-61
2022/04/16 00:33:19;;;;;;;18.02;13.60;;;;;;;;;;4984022;28;20228;-61
2022/04/16 00:35:44;;;;;;;22.42;13.30;;;;;;;;;;4981411;28;21035;-61
2022/04/16 00:38:09;;;;;;;16.42;13.00;;;;;;;;;;4975858;28;20389;-61
2022/04/16 00:40:35;;;;;;;18.33;13.50;;;;;;;;;;4977144;28;20267;-61
2022/04/16 00:43:00;;;;;;;19.30;14.30;;;;;;;;;;4980146;28;20291;-62
2022/04/16 00:45:26;;;;;;;18.45;13.82;;;;;;;;;;4984183;28;20229;-61
2022/04/16 00:47:51;;;;;;;24.55;15.48;;;;;;;;;;4985105;28;20226;-61
2022/04/16 00:50:16;;;;;;;19.55;15.30;;;;;;;;;;4984208;28;20255;-61
2022/04/16 00:52:43;;;;;;;20.52;15.35;;;;;;;;;;4984192;28;20638;-61
2022/04/16 00:55:09;;;;;;;18.85;15.60;;;;;;;;;;4984168;28;20232;-61
2022/04/16 00:57:36;;;;;;;21.23;16.05;;;;;;;;;;4980675;28;20205;-61
2022/04/16 01:00:02;;;;;;;18.40;15.23;;;;;;;;;;4975274;28;20314;-61
2022/04/16 01:02:28;;;;;;;21.48;14.80;;;;;;;;;;4960365;28;20217;-61
2022/04/16 01:04:53;;;;;;;21.65;16.27;;;;;;;;;;4958818;28;20587;-61
2022/04/16 01:07:22;;;;;;;21.15;15.88;;;;;;;;;;4981313;28;20248;-61
2022/04/16 01:09:48;;;;;;;20.38;15.32;;;;;;;;;;4984127;28;20212;-61
2022/04/16 01:12:14;;;;;;;22.02;16.92;;;;;;;;;;4964689;28;20214;-61
2022/04/16 01:14:39;;;;;;;20.92;16.60;;;;;;;;;;4965330;28;20212;-61
2022/04/16 01:17:04;;;;;;;21.65;17.33;;;;;;;;;;4965138;28;20225;-61
2022/04/16 01:19:30;;;;;;;22.90;16.23;;;;;;;;;;4981444;28;20220;-61
2022/04/16 01:21:55;;;;;;;23.25;16.00;;;;;;;;;;4978285;28;20560;-61
2022/04/16 01:24:20;;;;;;;20.10;17.20;;;;;;;;;;4975834;28;20221;-60
2022/04/16 01:26:46;;;;;;;25.20;17.48;;;;;;;;;;4975778;28;20279;-61
2022/04/16 01:29:12;;;;;;;23.73;16.50;;;;;;;;;;4981245;28;20217;-61
2022/04/16 01:31:37;;;;;;;20.13;16.13;;;;;;;;;;4984379;28;20216;-61
2022/04/16 01:34:03;;;;;;;22.58;17.80;;;;;;;;;;4982645;28;20209;-61
2022/04/16 01:36:30;;;;;;;23.90;17.70;;;;;;;;;;4982949;28;20231;-61
2022/04/16 01:38:57;;;;;;;23.98;18.13;;;;;;;;;;4983625;28;20217;-61
2022/04/16 01:41:23;;;;;;;27.60;18.60;;;;;;;;;;4982301;28;20217;-61
2022/04/16 01:43:49;;;;;;;22.30;16.98;;;;;;;;;;4980935;28;20312;-61
2022/04/16 01:46:14;;;;;;;26.30;18.85;;;;;;;;;;4975638;28;20229;-61
2022/04/16 01:48:39;;;;;;;22.55;18.30;;;;;;;;;;4975467;28;20218;-61
2022/04/16 01:51:05;;;;;;;26.70;18.80;;;;;;;;;;4978546;28;20304;-61
2022/04/16 01:53:30;;;;;;;25.13;18.92;;;;;;;;;;4983974;28;20206;-61
2022/04/16 01:55:55;;;;;;;23.15;18.70;;;;;;;;;;4982777;28;20249;-61
2022/04/16 01:58:21;;;;;;;26.83;19.02;;;;;;;;;;4973989;28;20221;-61
2022/04/16 02:00:47;;;;;;;25.13;18.70;;;;;;;;;;4964415;28;20202;-61
2022/04/16 02:03:14;;;;;;;25.83;19.17;;;;;;;;;;4963115;28;20229;-61
2022/04/16 02:05:39;;;;;;;23.65;18.50;;;;;;;;;;4964220;28;20684;-61
2022/04/16 02:08:06;;;;;;;24.30;17.55;;;;;;;;;;4974740;28;20213;-61
2022/04/16 02:10:31;;;;;;;23.02;18.35;;;;;;;;;;4968653;28;20616;-61
2022/04/16 02:12:56;;;;;;;24.80;17.40;;;;;;;;;;4957521;28;20284;-60
2022/04/16 02:15:22;;;;;;;27.58;18.48;;;;;;;;;;4962908;28;20220;-61
2022/04/16 02:17:47;;;;;;;22.38;17.92;;;;;;;;;;4982792;28;20728;-61
2022/04/16 02:20:12;;;;;;;24.02;17.05;;;;;;;;;;4982710;28;20216;-61
2022/04/16 02:22:39;;;;;;;26.05;18.70;;;;;;;;;;4982211;28;20209;-61
2022/04/16 02:25:05;;;;;;;23.52;18.05;;;;;;;;;;4982584;28;20228;-60
2022/04/16 02:27:31;;;;;;;26.40;18.25;;;;;;;;;;4982263;28;20216;-61
2022/04/16 02:29:57;;;;;;;25.85;19.50;;;;;;;;;;4977330;28;20209;-61
2022/04/16 02:32:23;;;;;;;23.05;17.88;;;;;;;;;;4974850;28;20680;-61
2022/04/16 02:34:51;;;;;;;26.70;18.83;;;;;;;;;;4975339;28;20221;-61
2022/04/16 02:37:17;;;;;;;24.65;18.17;;;;;;;;;;4978934;28;20213;-61
2022/04/16 02:39:42;;;;;;;24.98;17.95;;;;;;;;;;4983057;28;20209;-61
2022/04/16 02:42:07;;;;;;;22.70;17.90;;;;;;;;;;4983064;28;20220;-61
2022/04/16 02:47:16;;;;;;;23.13;17.30;;;;;;;;;;4982345;28;20291;-61
2022/04/16 02:49:43;;;;;;;24.13;18.63;;;;;;;;;;4983239;28;20574;-60
2022/04/16 02:52:09;;;;;;;22.02;17.02;;;;;;;;;;4978454;28;20225;-61
2022/04/16 02:54:35;;;;;;;24.55;18.30;;;;;;;;;;4978024;28;20229;-61
2022/04/16 02:57:00;;;;;;;25.88;19.58;;;;;;;;;;4979366;28;20755;-60
2022/04/16 02:59:27;;;;;;;25.30;18.30;;;;;;;;;;4976770;28;20219;-61
2022/04/16 03:01:53;;;;;;;23.60;18.15;;;;;;;;;;4974919;28;20221;-61
2022/04/16 03:04:18;;;;;;;26.05;19.30;;;;;;;;;;4967799;28;20288;-61
2022/04/16 03:06:44;;;;;;;26.92;19.50;;;;;;;;;;4984143;28;20623;-61
2022/04/16 03:09:09;;;;;;;25.58;18.52;;;;;;;;;;4986126;28;20208;-60
2022/04/16 03:11:35;;;;;;;26.75;18.92;;;;;;;;;;4978817;28;20209;-60
2022/04/16 03:17:31;;;;;;;26.00;18.63;;;;;;;;;;4984529;28;21205;-61
2022/04/16 03:19:29;;;;;;;26.85;20.20;;;;;;;;;;4977717;28;20219;-60
2022/04/16 03:21:55;;;;;;;25.38;18.30;;;;;;;;;;4981323;28;20217;-61
2022/04/16 03:24:20;;;;;;;27.20;18.55;;;;;;;;;;4986146;28;20221;-60
2022/04/16 03:26:45;;;;;;;28.60;19.85;;;;;;;;;;4985854;28;20551;-61
2022/04/16 03:29:11;;;;;;;27.93;20.07;;;;;;;;;;4986521;28;20260;-61
2022/04/16 03:31:36;;;;;;;26.73;19.50;;;;;;;;;;4986386;28;20206;-61
2022/04/16 03:34:01;;;;;;;25.10;19.45;;;;;;;;;;4985412;28;20221;-62
2022/04/16 03:36:26;;;;;;;20.85;17.38;;;;;;;;;;4985967;28;20219;-61
2022/04/16 03:38:52;;;;;;;27.02;19.48;;;;;;;;;;4978489;28;20579;-61
2022/04/16 03:41:17;;;;;;;27.95;20.75;;;;;;;;;;4976828;28;20213;-61
2022/04/16 03:43:42;;;;;;;25.10;19.73;;;;;;;;;;4979149;28;20235;-60
2022/04/16 03:46:08;;;;;;;26.48;19.88;;;;;;;;;;4985179;28;20229;-60
2022/04/16 03:48:33;;;;;;;25.05;19.35;;;;;;;;;;4985092;28;20224;-61
2022/04/16 03:50:59;;;;;;;27.58;20.58;;;;;;;;;;4986267;28;20583;-61
2022/04/16 03:53:24;;;;;;;24.13;17.88;;;;;;;;;;4985284;28;20303;-61
2022/04/16 04:01:18;;;;;;;29.20;20.35;;;;;;;;;;4969555;28;20923;-61
2022/04/16 04:03:46;;;;;;;29.15;20.83;;;;;;;;;;4958428;28;20205;-61
2022/04/16 04:06:12;;;;;;;27.52;20.42;;;;;;;;;;4977978;28;20699;-61
2022/04/16 04:08:37;;;;;;;28.55;20.45;;;;;;;;;;4983785;28;20224;-61
2022/04/16 04:11:03;;;;;;;27.65;21.15;;;;;;;;;;4977025;28;20213;-61
2022/04/16 04:13:28;;;;;;;34.13;23.63;;;;;;;;;;4985850;28;20865;-61
2022/04/16 04:15:53;;;;;;;28.85;22.38;;;;;;;;;;4983715;28;20286;-61
2022/04/16 04:18:18;;;;;;;34.17;24.05;;;;;;;;;;4985267;28;20698;-61
2022/04/16 04:20:44;;;;;;;30.80;22.85;;;;;;;;;;4985215;28;20213;-60
2022/04/16 04:23:09;;;;;;;32.40;23.63;;;;;;;;;;4979892;28;20428;-60
2022/04/16 04:25:34;;;;;;;27.17;20.58;;;;;;;;;;4976876;28;20383;-61
2022/04/16 04:28:00;;;;;;;33.38;24.45;;;;;;;;;;4977626;28;20303;-61
2022/04/16 04:30:25;;;;;;;31.98;23.15;;;;;;;;;;4980562;28;20702;-60
2022/04/16 04:32:50;;;;;;;32.60;24.00;;;;;;;;;;4985470;28;20248;-60
2022/04/16 04:35:15;;;;;;;32.08;23.15;;;;;;;;;;4984630;28;20220;-60
2022/04/16 04:37:41;;;;;;;32.70;22.75;;;;;;;;;;4984731;28;20336;-60
2022/04/16 04:40:06;;;;;;;34.78;25.27;;;;;;;;;;4984416;28;20221;-61
2022/04/16 04:42:32;;;;;;;34.67;26.05;;;;;;;;;;4985126;28;20227;-61
2022/04/16 04:44:57;;;;;;;33.58;24.48;;;;;;;;;;4982731;28;20410;-61
2022/04/16 04:47:23;;;;;;;36.65;24.83;;;;;;;;;;4976776;28;20629;-60
2022/04/16 04:49:48;;;;;;;35.05;24.48;;;;;;;;;;4977121;28;20213;-61
2022/04/16 04:52:20;;;;;;;34.60;23.92;;;;;;;;;;4976919;28;20225;-60
2022/04/16 04:54:45;;;;;;;40.28;25.15;;;;;;;;;;4984624;28;20283;-61
2022/04/16 04:57:11;;;;;;;38.08;26.60;;;;;;;;;;4983030;28;20220;-60
2022/04/16 04:59:36;;;;;;;34.10;24.70;;;;;;;;;;4965536;28;20213;-60
2022/04/16 05:02:01;;;;;;;37.75;28.30;;;;;;;;;;4965514;28;20598;-61
2022/04/16 05:04:26;;;;;;;38.50;26.98;;;;;;;;;;4964869;28;20275;-60
2022/04/16 05:06:52;;;;;;;38.00;25.30;;;;;;;;;;4965618;28;20725;-60
2022/04/16 05:09:17;;;;;;;37.25;25.55;;;;;;;;;;4958566;28;20206;-61
2022/04/16 05:11:42;;;;;;;32.15;25.00;;;;;;;;;;4957233;28;20225;-61
2022/04/16 05:14:07;;;;;;;37.78;26.27;;;;;;;;;;4959269;28;20598;-61
2022/04/16 05:16:33;;;;;;;36.10;25.17;;;;;;;;;;4963949;28;20222;-60
2022/04/16 05:18:58;;;;;;;35.80;26.20;;;;;;;;;;4964555;28;20677;-60
2022/04/16 05:21:23;;;;;;;33.08;25.20;;;;;;;;;;4964575;28;20212;-61
2022/04/16 05:23:49;;;;;;;34.45;24.35;;;;;;;;;;4984307;28;20685;-61
2022/04/16 05:26:14;;;;;;;33.53;25.35;;;;;;;;;;4982683;28;20233;-61
2022/04/16 05:28:39;;;;;;;35.92;25.65;;;;;;;;;;4984265;28;20656;-60
2022/04/16 05:31:05;;;;;;;35.45;26.02;;;;;;;;;;4979616;28;20227;-61
2022/04/16 05:36:15;;;;;;;37.88;25.73;;;;;;;;;;4975943;28;20711;-61
2022/04/16 05:38:40;;;;;;;37.05;26.15;;;;;;;;;;4981408;28;20217;-61
2022/04/16 05:41:05;;;;;;;34.25;24.80;;;;;;;;;;4982649;28;20694;-60
2022/04/16 05:43:30;;;;;;;32.58;25.13;;;;;;;;;;4983907;28;20214;-61
2022/04/16 05:45:56;;;;;;;31.20;23.85;;;;;;;;;;4982615;28;20364;-60
2022/04/16 05:48:21;;;;;;;34.28;25.38;;;;;;;;;;4982492;28;21100;-60
2022/04/16 05:50:46;;;;;;;33.67;23.60;;;;;;;;;;4983496;28;20288;-60
2022/04/16 05:53:12;;;;;;;31.27;23.55;;;;;;;;;;4980867;28;20235;-61
2022/04/16 05:55:37;;;;;;;32.88;24.48;;;;;;;;;;4973786;28;20775;-61
2022/04/16 05:58:03;;;;;;;31.60;25.80;;;;;;;;;;4970597;28;20379;-61
2022/04/16 06:00:28;;;;;;;38.33;26.13;;;;;;;;;;4958335;28;20288;-60
2022/04/16 06:02:54;;;;;;;32.80;25.75;;;;;;;;;;4964320;28;20304;-60
2022/04/16 06:05:21;;;;;;;37.25;26.60;;;;;;;;;;4964273;28;20735;-61
2022/04/16 06:07:46;;;;;;;35.88;24.48;;;;;;;;;;4963394;28;20713;-60
2022/04/16 06:10:11;;;;;;;31.65;25.02;;;;;;;;;;4989833;28;20236;-62
2022/04/16 06:12:37;;;;;;;33.55;25.33;;;;;;;;;;4993270;28;20209;-61
2022/04/16 06:15:02;;;;;;;34.13;27.03;;;;;;;;;;4990267;28;20427;-62
2022/04/16 06:17:27;;;;;;;32.72;25.52;;;;;;;;;;4991327;28;20248;-62
2022/04/16 06:19:53;;;;;;;30.23;23.23;;;;;;;;;;4992491;28;20205;-62
2022/04/16 06:22:19;;;;;;;32.17;26.63;;;;;;;;;;4990088;28;20464;-62
2022/04/16 06:24:44;;;;;;;33.08;24.42;;;;;;;;;;4992447;28;20698;-62
2022/04/16 06:27:10;;;;;;;31.85;25.50;;;;;;;;;;4989452;28;20651;-62
2022/04/16 06:29:35;;;;;;;32.90;25.13;;;;;;;;;;4991830;28;20209;-62
2022/04/16 06:32:00;;;;;;;32.42;24.92;;;;;;;;;;4991316;28;20272;-62
2022/04/16 06:34:27;;;;;;;31.77;24.85;;;;;;;;;;4992169;28;20297;-62
2022/04/16 06:36:52;;;;;;;29.50;24.23;;;;;;;;;;4991842;28;20216;-63
2022/04/16 06:39:17;;;;;;;31.02;24.63;;;;;;;;;;4991955;28;20295;-62
2022/04/16 06:41:43;;;;;;;32.40;23.50;;;;;;;;;;4991563;28;20209;-62
2022/04/16 06:44:08;;;;;;;30.92;23.50;;;;;;;;;;4990848;28;20296;-60
2022/04/16 06:46:33;;;;;;;28.60;23.08;;;;;;;;;;4993194;28;20271;-61
2022/04/16 06:48:58;;;;;;;30.83;23.83;;;;;;;;;;4992390;28;20232;-63
2022/04/16 06:51:24;;;;;;;26.83;21.92;;;;;;;;;;4991344;28;20266;-63
2022/04/16 06:53:49;;;;;;;31.50;22.83;;;;;;;;;;4992553;28;20205;-63
2022/04/16 06:56:14;;;;;;;28.35;22.20;;;;;;;;;;4991964;28;20221;-63
2022/04/16 06:58:39;;;;;;;25.40;20.23;;;;;;;;;;4991760;28;20486;-63
2022/04/16 07:01:05;;;;;;;23.95;18.73;;;;;;;;;;4992513;28;20648;-62
2022/04/16 07:03:30;;;;;;;28.27;21.20;;;;;;;;;;4993086;28;20209;-64
2022/04/16 07:05:55;;;;;;;27.20;21.65;;;;;;;;;;4992165;28;20229;-62
2022/04/16 07:08:21;;;;;;;26.98;20.83;;;;;;;;;;4992475;28;20268;-62
2022/04/16 07:10:46;;;;;;;30.55;21.90;;;;;;;;;;4992001;28;20201;-62
2022/04/16 07:13:11;;;;;;;27.95;21.23;;;;;;;;;;4991682;28;20360;-63
2022/04/16 07:15:36;;;;;;;28.30;21.15;;;;;;;;;;4992723;28;20213;-62
2022/04/16 07:18:02;;;;;;;26.45;19.88;;;;;;;;;;4991328;28;20217;-62
2022/04/16 07:20:28;;;;;;;27.25;20.83;;;;;;;;;;4992926;28;20232;-62
2022/04/16 07:22:53;;;;;;;25.70;21.15;;;;;;;;;;4992668;28;20213;-61
2022/04/16 07:25:20;;;;;;;26.70;19.48;;;;;;;;;;4991595;28;20696;-61
2022/04/16 07:27:45;;;;;;;21.70;17.65;;;;;;;;;;4992192;28;20715;-61
2022/04/16 07:30:10;;;;;;;20.20;16.55;;;;;;;;;;4992012;28;20296;-61
2022/04/16 07:32:36;;;;;;;23.65;18.23;;;;;;;;;;4992405;28;20217;-61
2022/04/16 07:35:01;;;;;;;23.38;18.20;;;;;;;;;;4992468;28;20744;-61
2022/04/16 07:37:26;;;;;;;24.55;18.50;;;;;;;;;;4992972;28;20726;-61
2022/04/16 07:39:51;;;;;;;23.58;18.42;;;;;;;;;;4993744;28;20209;-61
2022/04/16 07:42:17;;;;;;;20.27;16.38;;;;;;;;;;4995882;28;20295;-61
2022/04/16 07:44:42;;;;;;;19.80;15.90;;;;;;;;;;4995908;28;20312;-61
2022/04/16 07:47:07;;;;;;;23.27;17.13;;;;;;;;;;4994910;28;20634;-62
2022/04/16 07:49:33;;;;;;;22.40;15.63;;;;;;;;;;4995882;28;20213;-61
2022/04/16 07:51:58;;;;;;;20.00;14.80;;;;;;;;;;4996047;28;20304;-61
2022/04/16 07:54:23;;;;;;;18.20;14.88;;;;;;;;;;4994609;28;20680;-61
2022/04/16 07:56:48;;;;;;;20.50;15.57;;;;;;;;;;4996103;28;20800;-61
2022/04/16 07:59:14;;;;;;;18.60;13.88;;;;;;;;;;4995277;28;20248;-61
2022/04/16 08:01:39;;;;;;;18.17;12.95;;;;;;;;;;4995055;28;20205;-61
2022/04/16 08:04:04;;;;;;;17.33;12.68;;;;;;;;;;4995466;28;20217;-61
2022/04/16 08:06:30;;;;;;;16.95;12.77;;;;;;;;;;4995827;28;20228;-61
2022/04/16 08:09:00;;;;;;;17.98;13.02;;;;;;;;;;4994898;28;20220;-61
2022/04/16 08:11:27;;;;;;;15.43;11.68;;;;;;;;;;4995610;28;20246;-61
2022/04/16 08:13:52;;;;;;;16.15;11.98;;;;;;;;;;4995495;28;20248;-61
2022/04/16 08:16:17;;;;;;;17.77;12.40;;;;;;;;;;4994283;28;20687;-61
2022/04/16 08:18:43;;;;;;;16.75;12.13;;;;;;;;;;4995579;28;20232;-61
2022/04/16 08:21:08;;;;;;;17.35;13.13;;;;;;;;;;4994086;28;20691;-61
2022/04/16 08:23:40;;;;;;;16.70;13.00;;;;;;;;;;4995413;28;20219;-61
2022/04/16 08:26:05;;;;;;;17.65;12.65;;;;;;;;;;4995159;28;20256;-61
2022/04/16 08:28:30;;;;;;;15.00;12.77;;;;;;;;;;4994717;28;20205;-61
2022/04/16 08:30:56;;;;;;;17.38;13.20;;;;;;;;;;4994981;28;20216;-61
2022/04/16 08:33:21;;;;;;;18.20;14.40;;;;;;;;;;4994578;28;20212;-61
2022/04/16 08:35:46;;;;;;;17.02;13.32;;;;;;;;;;4994738;28;20296;-61
2022/04/16 08:38:12;;;;;;;17.70;13.45;;;;;;;;;;4994867;28;20213;-61
2022/04/16 08:40:37;;;;;;;17.83;13.98;;;;;;;;;;4994909;28;20292;-61
2022/04/16 08:43:02;;;;;;;17.70;13.23;;;;;;;;;;4994092;28;20209;-61
2022/04/16 08:45:29;;;;;;;17.65;13.43;;;;;;;;;;4993006;28;20248;-62
2022/04/16 08:47:54;;;;;;;18.83;14.00;;;;;;;;;;4993360;28;20221;-62
2022/04/16 08:50:20;;;;;;;19.02;13.93;;;;;;;;;;4992510;28;20228;-63
2022/04/16 08:52:45;;;;;;;17.80;13.80;;;;;;;;;;4993791;28;20221;-63
2022/04/16 08:55:11;;;;;;;20.58;14.07;;;;;;;;;;4993764;28;20229;-63
2022/04/16 08:57:36;;;;;;;17.30;13.25;;;;;;;;;;4993751;28;20213;-62
2022/04/16 09:00:02;;;;;;;18.33;12.93;;;;;;;;;;4993660;28;20557;-63
2022/04/16 09:02:27;;;;;;;17.10;12.55;;;;;;;;;;4993913;28;20205;-63
2022/04/16 09:05:01;;;;;;;18.73;12.90;;;;;;;;;;4993854;28;20295;-62
2022/04/16 09:07:26;;;;;;;18.05;13.60;;;;;;;;;;4994257;28;20225;-62
2022/04/16 09:09:52;;;;;;;15.73;11.88;;;;;;;;;;4994380;28;20308;-62
2022/04/16 09:12:17;;;;;;;16.52;12.60;;;;;;;;;;4993431;28;20224;-63
2022/04/16 09:14:44;;;;;;;16.00;12.82;;;;;;;;;;4994573;28;20224;-62
2022/04/16 09:17:10;;;;;;;17.67;12.45;;;;;;;;;;4992772;28;20707;-62
2022/04/16 09:19:35;;;;;;;16.33;13.30;;;;;;;;;;4992178;28;20217;-63
2022/04/16 09:22:00;;;;;;;16.98;11.70;;;;;;;;;;4993106;28;20213;-62
2022/04/16 09:24:26;;;;;;;16.38;11.27;;;;;;;;;;4993354;28;20840;-62
2022/04/16 09:26:51;;;;;;;17.05;11.88;;;;;;;;;;4994338;28;20309;-62
2022/04/16 09:29:16;;;;;;;17.08;11.23;;;;;;;;;;4993821;28;20220;-62
2022/04/16 09:31:43;;;;;;;13.63;10.88;;;;;;;;;;4993429;28;20213;-62
2022/04/16 09:34:15;;;;;;;14.23;10.93;;;;;;;;;;4993792;28;20213;-62
2022/04/16 09:36:43;;;;;;;14.50;10.90;;;;;;;;;;4994020;28;20660;-62
2022/04/16 09:39:10;;;;;;;13.75;9.90;;;;;;;;;;4993100;28;20216;-62
2022/04/16 09:41:36;;;;;;;13.60;9.68;;;;;;;;;;4993774;28;20220;-62
2022/04/16 09:44:02;;;;;;;12.63;8.95;;;;;;;;;;4992608;28;20214;-63
2022/04/16 09:46:30;;;;;;;11.90;9.55;;;;;;;;;;4991683;28;20224;-62
2022/04/16 09:49:04;;;;;;;14.32;10.02;;;;;;;;;;4993636;28;20212;-62
2022/04/16 09:51:34;;;;;;;12.50;9.15;;;;;;;;;;4993496;28;20213;-62
2022/04/16 09:53:59;;;;;;;12.13;8.52;;;;;;;;;;4993026;28;20213;-62
2022/04/16 09:56:26;;;;;;;10.70;7.65;;;;;;;;;;4992102;28;20228;-62
2022/04/16 09:58:52;;;;;;;11.88;8.50;;;;;;;;;;4992462;28;20235;-62
2022/04/16 10:01:18;;;;;;;10.48;7.65;;;;;;;;;;4992081;28;20205;-62
2022/04/16 10:03:45;;;;;;;11.57;8.32;;;;;;;;;;4993546;28;20215;-62
2022/04/16 10:06:10;;;;;;;11.23;8.27;;;;;;;;;;4993155;28;20307;-62
2022/04/16 10:08:35;;;;;;;11.77;8.02;;;;;;;;;;4992861;28;20312;-62
2022/04/16 10:11:03;;;;;;;11.63;8.13;;;;;;;;;;4993261;28;20213;-62
2022/04/16 10:13:29;;;;;;;10.23;7.03;;;;;;;;;;4993627;28;20270;-62
2022/04/16 10:16:00;;;;;;;10.13;6.88;;;;;;;;;;4991468;28;20295;-62
2022/04/16 10:18:25;;;;;;;11.23;7.05;;;;;;;;;;4991983;28;20252;-62
2022/04/16 10:20:57;;;;;;;10.23;6.70;;;;;;;;;;4991213;28;20572;-62
2022/04/16 10:23:25;;;;;;;10.68;6.97;;;;;;;;;;4991974;28;20571;-62
2022/04/16 10:25:50;;;;;;;10.05;6.47;;;;;;;;;;4993332;28;20282;-62
2022/04/16 10:28:19;;;;;;;9.35;6.20;;;;;;;;;;4992337;28;20213;-62
2022/04/16 10:30:51;;;;;;;10.23;6.03;;;;;;;;;;4993328;28;20215;-62
2022/04/16 10:33:20;;;;;;;10.98;6.80;;;;;;;;;;4992573;28;20223;-62
2022/04/16 10:35:50;;;;;;;8.98;6.43;;;;;;;;;;4992647;28;20217;-62
2022/04/16 10:38:34;;;;;;;8.48;5.90;;;;;;;;;;4993201;28;20213;-62
2022/04/16 10:41:01;;;;;;;7.18;4.97;;;;;;;;;;4992911;28;20219;-62
2022/04/16 10:43:27;;;;;;;6.82;5.30;;;;;;;;;;4992433;28;20221;-62
2022/04/16 10:46:05;;;;;;;7.05;5.20;;;;;;;;;;4993039;28;20271;-62
2022/04/16 10:48:32;;;;;;;8.55;5.70;;;;;;;;;;4991664;28;20217;-62
2022/04/16 10:50:58;;;;;;;6.75;4.63;;;;;;;;;;4992060;28;20229;-62
2022/04/16 10:53:30;;;;;;;8.98;5.18;;;;;;;;;;4991339;28;20553;-62
2022/04/16 10:55:55;;;;;;;7.78;4.38;;;;;;;;;;4992128;28;20232;-62
2022/04/16 10:58:27;;;;;;;8.13;4.30;;;;;;;;;;4992782;28;20229;-62
2022/04/16 11:00:52;;;;;;;7.03;3.70;;;;;;;;;;4992711;28;20205;-62
2022/04/16 11:03:27;;;;;;;6.82;4.47;;;;;;;;;;4990357;28;20212;-62
2022/04/16 11:06:07;;;;;;;6.35;3.95;;;;;;;;;;4992702;28;20220;-62
2022/04/16 11:08:34;;;;;;;5.93;4.20;;;;;;;;;;4992953;28;20216;-62
2022/04/16 11:10:59;;;;;;;7.13;4.80;;;;;;;;;;4992016;28;20359;-62
2022/04/16 11:13:25;;;;;;;7.45;4.28;;;;;;;;;;4992639;28;20315;-62
2022/04/16 11:15:51;;;;;;;6.28;4.20;;;;;;;;;;4996489;28;20565;-62
2022/04/16 11:18:17;;;;;;;5.80;3.85;;;;;;;;;;4994097;28;20296;-61
2022/04/16 11:20:43;;;;;;;9.68;4.75;;;;;;;;;;4996194;28;20722;-61
2022/04/16 11:23:11;;;;;;;7.97;5.38;;;;;;;;;;4996159;28;20221;-62
2022/04/16 11:34:14;;;;;;;7.38;5.13;;;;;;;;;;4995888;28;20209;-61
2022/04/16 11:34:17;;;;;;;6.57;4.93;;;;;;;;;;4994959;28;20728;-62
2022/04/16 11:36:47;;;;;;;6.85;4.72;;;;;;;;;;4996359;28;20208;-61
2022/04/16 11:39:19;;;;;;;6.70;4.55;;;;;;;;;;4995301;28;20209;-61
2022/04/16 11:41:51;;;;;;;10.07;5.03;;;;;;;;;;4996118;28;20209;-61
2022/04/16 11:44:16;;;;;;;9.98;4.45;;;;;;;;;;4995787;28;20744;-62
2022/04/16 11:46:41;;;;;;;6.75;4.45;;;;;;;;;;4994002;28;20312;-62
2022/04/16 11:49:07;;;;;;;5.78;4.30;;;;;;;;;;4995672;28;20213;-61
2022/04/16 11:51:36;;;;;;;6.03;4.32;;;;;;;;;;4995750;28;20209;-61
2022/04/16 11:54:01;;;;;;;8.07;4.40;;;;;;;;;;4994696;28;20295;-62
2022/04/16 11:56:27;;;;;;;10.65;5.55;;;;;;;;;;4994469;28;20304;-61
2022/04/16 11:58:52;;;;;;;7.35;4.60;;;;;;;;;;4995940;28;20208;-61
2022/04/16 12:01:23;;;;;;;7.32;4.50;;;;;;;;;;4994542;28;20300;-61
2022/04/16 12:03:49;;;;;;;7.85;4.78;;;;;;;;;;4994388;28;20256;-61
2022/04/16 12:06:15;;;;;;;10.52;7.70;;;;;;;;;;4994140;28;20249;-62
2022/04/16 12:08:40;;;;;;;12.18;7.72;;;;;;;;;;4995044;28;20224;-61
2022/04/16 12:11:06;;;;;;;8.32;4.85;;;;;;;;;;4993472;28;20272;-61
2022/04/16 12:13:35;;;;;;;6.75;4.70;;;;;;;;;;4994363;28;20220;-61
2022/04/16 12:16:04;;;;;;;7.50;4.55;;;;;;;;;;4994918;28;20217;-62
2022/04/16 12:18:33;;;;;;;7.95;4.90;;;;;;;;;;4995062;28;20240;-61
2022/04/16 12:21:03;;;;;;;9.27;5.32;;;;;;;;;;4993999;28;20284;-61
2022/04/16 12:23:29;;;;;;;9.63;4.93;;;;;;;;;;4994766;28;20608;-62
2022/04/16 12:26:03;;;;;;;11.15;5.85;;;;;;;;;;4993556;28;20217;-61
2022/04/16 12:28:31;;;;;;;10.27;4.88;;;;;;;;;;4994408;28;20668;-62
2022/04/16 12:30:56;;;;;;;8.40;3.95;;;;;;;;;;4994055;28;21181;-62
2022/04/16 12:33:25;;;;;;;7.57;4.40;;;;;;;;;;4974403;28;20296;-62
2022/04/16 12:35:55;;;;;;;6.90;4.05;;;;;;;;;;4969578;28;20209;-62
2022/04/16 12:38:20;;;;;;;7.60;3.22;;;;;;;;;;4979802;28;20247;-62
2022/04/16 12:40:46;;;;;;;5.72;3.22;;;;;;;;;;4977587;28;20727;-61
2022/04/16 12:43:11;;;;;;;4.78;3.08;;;;;;;;;;4987666;28;20217;-62
2022/04/16 12:45:36;;;;;;;5.32;2.60;;;;;;;;;;4989021;28;20715;-62
2022/04/16 12:48:02;;;;;;;4.35;2.30;;;;;;;;;;4988236;28;20213;-63
2022/04/16 12:50:28;;;;;;;6.07;2.63;;;;;;;;;;4978614;28;20284;-62
2022/04/16 12:52:53;;;;;;;5.80;2.70;;;;;;;;;;4969668;28;20210;-61
2022/04/16 12:55:18;;;;;;;5.78;2.92;;;;;;;;;;4967434;28;20240;-61
2022/04/16 12:57:44;;;;;;;4.75;2.42;;;;;;;;;;4962144;28;20240;-62
2022/04/16 13:00:11;;;;;;;5.60;3.20;;;;;;;;;;4961611;28;20249;-62
2022/04/16 13:02:40;;;;;;;6.90;3.85;;;;;;;;;;4972351;28;20279;-61
2022/04/16 13:05:08;;;;;;;7.45;4.55;;;;;;;;;;4988036;28;20862;-62
2022/04/16 13:07:33;;;;;;;6.22;3.30;;;;;;;;;;4978877;28;20228;-62
2022/04/16 13:09:59;;;;;;;6.78;3.70;;;;;;;;;;4969120;28;20214;-63
2022/04/16 13:12:25;;;;;;;7.45;4.38;;;;;;;;;;4966965;28;20213;-63
2022/04/16 13:14:50;;;;;;;4.63;3.13;;;;;;;;;;4969576;28;20292;-63
2022/04/16 13:17:15;;;;;;;4.68;2.95;;;;;;;;;;4968079;28;20825;-63
2022/04/16 13:19:41;;;;;;;6.82;4.22;;;;;;;;;;4971449;28;20216;-63
2022/04/16 13:22:07;;;;;;;4.60;2.80;;;;;;;;;;4968622;28;20210;-63
2022/04/16 13:24:32;;;;;;;8.05;3.55;;;;;;;;;;4961289;28;20338;-63
2022/04/16 13:26:57;;;;;;;4.55;2.83;;;;;;;;;;4978769;28;20246;-62
2022/04/16 13:29:23;;;;;;;5.85;2.35;;;;;;;;;;4968867;28;20256;-62
2022/04/16 13:31:48;;;;;;;4.28;2.85;;;;;;;;;;4978530;28;20228;-62
2022/04/16 13:34:13;;;;;;;4.45;3.05;;;;;;;;;;4987764;28;20236;-63
2022/04/16 13:36:39;;;;;;;4.75;2.88;;;;;;;;;;4981084;28;20217;-63
2022/04/16 13:39:05;;;;;;;5.00;3.30;;;;;;;;;;4967721;28;20573;-63
2022/04/16 13:41:39;;;;;;;4.05;2.80;;;;;;;;;;4972228;28;20303;-63
2022/04/16 13:44:06;;;;;;;6.38;3.47;;;;;;;;;;4993475;28;20242;-63
2022/04/16 13:46:31;;;;;;;5.28;2.90;;;;;;;;;;4978747;28;20233;-63
2022/04/16 13:48:57;;;;;;;6.90;3.25;;;;;;;;;;4974193;28;20276;-63
2022/04/16 13:51:22;;;;;;;4.57;2.90;;;;;;;;;;4972658;28;20217;-63
2022/04/16 13:53:47;;;;;;;5.28;2.90;;;;;;;;;;4986625;28;20264;-63
2022/04/16 13:56:13;;;;;;;3.88;2.58;;;;;;;;;;4986885;28;20700;-63
2022/04/16 13:58:38;;;;;;;5.03;2.70;;;;;;;;;;4990569;28;20281;-63
2022/04/16 14:01:03;;;;;;;4.50;2.50;;;;;;;;;;4974421;28;20670;-63
2022/04/16 14:03:28;;;;;;;4.55;2.78;;;;;;;;;;4989874;28;20232;-63
2022/04/16 14:05:54;;;;;;;6.68;2.70;;;;;;;;;;4964513;28;20284;-63
2022/04/16 14:08:19;;;;;;;3.60;2.25;;;;;;;;;;4978800;28;20217;-63
2022/04/16 14:10:44;;;;;;;4.03;2.40;;;;;;;;;;4977389;28;20268;-63
2022/04/16 14:13:10;;;;;;;6.20;2.70;;;;;;;;;;4967610;28;20693;-63
2022/04/16 14:15:35;;;;;;;4.13;2.70;;;;;;;;;;4973386;28;20616;-63
2022/04/16 14:18:01;;;;;;;3.67;2.28;;;;;;;;;;4980503;28;20225;-63
2022/04/16 14:20:26;;;;;;;4.93;2.35;;;;;;;;;;4967759;28;20209;-62
2022/04/16 14:22:51;;;;;;;4.50;2.78;;;;;;;;;;4968936;28;20206;-63
2022/04/16 14:25:17;;;;;;;3.75;2.35;;;;;;;;;;4978652;28;20710;-62
2022/04/16 14:27:42;;;;;;;3.75;2.20;;;;;;;;;;4979217;28;20225;-62
2022/04/16 14:30:08;;;;;;;3.90;2.22;;;;;;;;;;4977323;28;20232;-62
2022/04/16 14:32:33;;;;;;;3.38;2.20;;;;;;;;;;4964294;28;20276;-63
2022/04/16 14:34:59;;;;;;;3.72;2.35;;;;;;;;;;4967170;28;20217;-62
2022/04/16 14:37:26;;;;;;;3.38;2.58;;;;;;;;;;4985318;28;20213;-62